sensor_id;sensor_type;location;lat;lon;timestamp;temperature;humidity
55795;DHT22;41716;51.910;4.430;2023-02-19T00:01:05;10.10;99.90
55795;DHT22;41716;51.910;4.430;2023-02-19T00:06:09;10.90;99.90
55795;DHT22;41716;51.910;4.430;2023-02-19T00:11:12;10.00;99.90
55795;DHT22;41716;51.910;4.430;2023-02-19T00:16:14;10.00;99.90
55795;DHT22;41716;51.910;4.430;2023-02-19T00:21:17;9.90;99.90
55795;DHT22;41716;51.910;4.430;2023-02-19T00:26:19;10.80;99.90
55795;DHT22;41716;51.910;4.430;2023-02-19T00:31:21;10.90;99.90
55795;DHT22;41716;51.910;4.430;2023-02-19T00:36:25;10.20;99.90
55795;DHT22;41716;51.910;4.430;2023-02-19T00:41:26;10.80;99.90
55795;DHT22;41716;51.910;4.430;2023-02-19T00:46:30;10.10;99.90
55795;DHT22;41716;51.910;4.430;2023-02-19T00:51:34;10.50;99.90
55795;DHT22;41716;51.910;4.430;2023-02-19T00:56:36;10.00;99.90
55795;DHT22;41716;51.910;4.430;2023-02-19T01:01:37;10.10;99.90
55795;DHT22;41716;51.910;4.430;2023-02-19T01:06:40;10.90;99.90
55795;DHT22;41716;51.910;4.430;2023-02-19T01:11:42;10.20;99.90
55795;DHT22;41716;51.910;4.430;2023-02-19T01:16:43;10.90;99.90
55795;DHT22;41716;51.910;4.430;2023-02-19T01:21:46;10.60;99.90
55795;DHT22;41716;51.910;4.430;2023-02-19T01:26:47;10.80;99.90
55795;DHT22;41716;51.910;4.430;2023-02-19T01:31:49;10.80;99.90
55795;DHT22;41716;51.910;4.430;2023-02-19T01:36:52;10.50;99.90
55795;DHT22;41716;51.910;4.430;2023-02-19T01:41:53;10.50;99.90
55795;DHT22;41716;51.910;4.430;2023-02-19T01:46:55;10.20;99.90
55795;DHT22;41716;51.910;4.430;2023-02-19T01:51:59;10.80;99.90
55795;DHT22;41716;51.910;4.430;2023-02-19T01:57:02;10.50;99.90
55795;DHT22;41716;51.910;4.430;2023-02-19T02:02:05;10.20;99.90
55795;DHT22;41716;51.910;4.430;2023-02-19T02:07:08;10.80;99.90
55795;DHT22;41716;51.910;4.430;2023-02-19T02:12:24;10.00;99.90
55795;DHT22;41716;51.910;4.430;2023-02-19T02:17:26;10.70;99.90
55795;DHT22;41716;51.910;4.430;2023-02-19T02:22:33;10.60;99.90
55795;DHT22;41716;51.910;4.430;2023-02-19T02:27:38;10.70;99.90
55795;DHT22;41716;51.910;4.430;2023-02-19T02:32:44;10.90;99.90
55795;DHT22;41716;51.910;4.430;2023-02-19T02:37:52;10.10;99.90
55795;DHT22;41716;51.910;4.430;2023-02-19T02:42:56;10.90;99.90
55795;DHT22;41716;51.910;4.430;2023-02-19T02:47:59;10.40;99.90
55795;DHT22;41716;51.910;4.430;2023-02-19T02:53:03;10.00;99.90
55795;DHT22;41716;51.910;4.430;2023-02-19T02:58:24;10.70;99.90
55795;DHT22;41716;51.910;4.430;2023-02-19T03:03:27;10.80;99.90
55795;DHT22;41716;51.910;4.430;2023-02-19T03:08:30;10.20;99.90
55795;DHT22;41716;51.910;4.430;2023-02-19T03:13:32;10.00;99.90
55795;DHT22;41716;51.910;4.430;2023-02-19T03:18:54;10.10;99.90
55795;DHT22;41716;51.910;4.430;2023-02-19T03:24:16;10.10;99.90
55795;DHT22;41716;51.910;4.430;2023-02-19T03:29:36;10.80;99.90
55795;DHT22;41716;51.910;4.430;2023-02-19T03:34:40;10.50;99.90
55795;DHT22;41716;51.910;4.430;2023-02-19T03:39:43;10.50;99.90
55795;DHT22;41716;51.910;4.430;2023-02-19T03:44:47;10.10;99.90
55795;DHT22;41716;51.910;4.430;2023-02-19T03:49:55;10.00;99.90
55795;DHT22;41716;51.910;4.430;2023-02-19T03:55:00;10.70;99.90
55795;DHT22;41716;51.910;4.430;2023-02-19T04:00:05;10.00;99.90
55795;DHT22;41716;51.910;4.430;2023-02-19T04:05:11;10.00;99.90
55795;DHT22;41716;51.910;4.430;2023-02-19T04:10:14;10.60;99.90
55795;DHT22;41716;51.910;4.430;2023-02-19T04:15:17;10.40;99.90
55795;DHT22;41716;51.910;4.430;2023-02-19T04:20:22;9.90;99.90
55795;DHT22;41716;51.910;4.430;2023-02-19T04:25:25;10.40;99.90
55795;DHT22;41716;51.910;4.430;2023-02-19T04:30:27;10.70;99.90
55795;DHT22;41716;51.910;4.430;2023-02-19T04:35:30;10.00;99.90
55795;DHT22;41716;51.910;4.430;2023-02-19T04:40:31;10.00;99.90
55795;DHT22;41716;51.910;4.430;2023-02-19T04:45:33;10.40;99.90
55795;DHT22;41716;51.910;4.430;2023-02-19T04:50:37;10.10;99.90
55795;DHT22;41716;51.910;4.430;2023-02-19T04:55:39;10.30;99.90
55795;DHT22;41716;51.910;4.430;2023-02-19T05:00:40;10.40;99.90
55795;DHT22;41716;51.910;4.430;2023-02-19T05:05:43;10.30;99.90
55795;DHT22;41716;51.910;4.430;2023-02-19T05:10:45;10.60;99.90
55795;DHT22;41716;51.910;4.430;2023-02-19T05:15:56;10.50;99.90
55795;DHT22;41716;51.910;4.430;2023-02-19T05:20:59;10.20;99.90
55795;DHT22;41716;51.910;4.430;2023-02-19T05:26:03;10.70;99.90
55795;DHT22;41716;51.910;4.430;2023-02-19T05:31:05;10.40;99.90
55795;DHT22;41716;51.910;4.430;2023-02-19T05:36:10;9.90;99.90
55795;DHT22;41716;51.910;4.430;2023-02-19T05:41:12;10.40;99.90
55795;DHT22;41716;51.910;4.430;2023-02-19T05:46:14;9.80;99.90
55795;DHT22;41716;51.910;4.430;2023-02-19T05:51:18;10.60;99.90
55795;DHT22;41716;51.910;4.430;2023-02-19T05:56:23;10.10;99.90
55795;DHT22;41716;51.910;4.430;2023-02-19T06:01:25;9.70;99.90
55795;DHT22;41716;51.910;4.430;2023-02-19T06:06:29;10.60;99.90
55795;DHT22;41716;51.910;4.430;2023-02-19T06:11:30;10.20;99.90
55795;DHT22;41716;51.910;4.430;2023-02-19T06:16:32;9.90;99.90
55795;DHT22;41716;51.910;4.430;2023-02-19T06:21:35;10.30;99.90
55795;DHT22;41716;51.910;4.430;2023-02-19T06:26:36;9.50;99.90
55795;DHT22;41716;51.910;4.430;2023-02-19T06:31:38;10.50;99.90
55795;DHT22;41716;51.910;4.430;2023-02-19T06:36:41;9.20;99.90
55795;DHT22;41716;51.910;4.430;2023-02-19T06:41:43;10.00;99.90
55795;DHT22;41716;51.910;4.430;2023-02-19T06:46:45;9.40;99.90
55795;DHT22;41716;51.910;4.430;2023-02-19T06:51:48;10.50;99.90
55795;DHT22;41716;51.910;4.430;2023-02-19T06:56:49;10.00;99.90
55795;DHT22;41716;51.910;4.430;2023-02-19T07:01:51;9.40;99.90
55795;DHT22;41716;51.910;4.430;2023-02-19T07:06:53;9.80;99.90
55795;DHT22;41716;51.910;4.430;2023-02-19T07:11:55;9.40;99.90
55795;DHT22;41716;51.910;4.430;2023-02-19T07:16:56;9.90;99.90
55795;DHT22;41716;51.910;4.430;2023-02-19T07:21:59;9.60;99.90
55795;DHT22;41716;51.910;4.430;2023-02-19T07:27:01;9.60;99.90
55795;DHT22;41716;51.910;4.430;2023-02-19T07:32:02;9.70;99.90
55795;DHT22;41716;51.910;4.430;2023-02-19T07:37:05;10.20;99.90
55795;DHT22;41716;51.910;4.430;2023-02-19T07:42:07;9.70;99.90
55795;DHT22;41716;51.910;4.430;2023-02-19T07:47:09;10.30;99.90
55795;DHT22;41716;51.910;4.430;2023-02-19T07:52:12;9.60;99.90
55795;DHT22;41716;51.910;4.430;2023-02-19T07:57:13;10.10;99.90
55795;DHT22;41716;51.910;4.430;2023-02-19T08:02:15;10.30;99.90
55795;DHT22;41716;51.910;4.430;2023-02-19T08:07:36;10.40;99.90
55795;DHT22;41716;51.910;4.430;2023-02-19T08:12:37;10.40;99.90
55795;DHT22;41716;51.910;4.430;2023-02-19T08:17:56;10.40;99.90
55795;DHT22;41716;51.910;4.430;2023-02-19T08:22:59;9.70;99.90
55795;DHT22;41716;51.910;4.430;2023-02-19T08:28:01;10.40;99.90
55795;DHT22;41716;51.910;4.430;2023-02-19T08:33:02;10.20;99.90
55795;DHT22;41716;51.910;4.430;2023-02-19T08:38:06;9.60;99.90
55795;DHT22;41716;51.910;4.430;2023-02-19T08:43:08;9.80;99.90
55795;DHT22;41716;51.910;4.430;2023-02-19T08:48:10;10.20;99.90
55795;DHT22;41716;51.910;4.430;2023-02-19T08:53:13;9.80;99.90
55795;DHT22;41716;51.910;4.430;2023-02-19T08:58:15;9.90;99.90
55795;DHT22;41716;51.910;4.430;2023-02-19T09:03:16;10.10;99.90
55795;DHT22;41716;51.910;4.430;2023-02-19T09:08:19;10.00;99.90
55795;DHT22;41716;51.910;4.430;2023-02-19T09:13:20;11.10;99.90
55795;DHT22;41716;51.910;4.430;2023-02-19T09:18:22;10.90;99.90
55795;DHT22;41716;51.910;4.430;2023-02-19T09:23:25;11.00;99.90
55795;DHT22;41716;51.910;4.430;2023-02-19T09:28:27;11.70;99.90
55795;DHT22;41716;51.910;4.430;2023-02-19T09:33:28;11.00;99.90
55795;DHT22;41716;51.910;4.430;2023-02-19T09:38:31;11.70;99.90
55795;DHT22;41716;51.910;4.430;2023-02-19T09:43:32;12.50;99.90
55795;DHT22;41716;51.910;4.430;2023-02-19T09:48:34;12.90;99.90
55795;DHT22;41716;51.910;4.430;2023-02-19T09:53:39;12.30;99.90
55795;DHT22;41716;51.910;4.430;2023-02-19T09:58:42;12.30;99.90
55795;DHT22;41716;51.910;4.430;2023-02-19T10:03:45;11.60;99.90
55795;DHT22;41716;51.910;4.430;2023-02-19T10:08:48;11.70;99.90
55795;DHT22;41716;51.910;4.430;2023-02-19T10:13:52;11.60;99.90
55795;DHT22;41716;51.910;4.430;2023-02-19T10:18:55;11.70;99.90
55795;DHT22;41716;51.910;4.430;2023-02-19T10:23:58;11.50;99.90
55795;DHT22;41716;51.910;4.430;2023-02-19T10:29:00;11.60;99.90
55795;DHT22;41716;51.910;4.430;2023-02-19T10:34:02;11.70;99.90
55795;DHT22;41716;51.910;4.430;2023-02-19T10:39:07;11.60;99.90
55795;DHT22;41716;51.910;4.430;2023-02-19T10:44:19;11.20;99.90
55795;DHT22;41716;51.910;4.430;2023-02-19T10:49:22;10.90;99.90
55795;DHT22;41716;51.910;4.430;2023-02-19T10:54:26;10.70;99.90
55795;DHT22;41716;51.910;4.430;2023-02-19T10:59:30;10.80;99.90
55795;DHT22;41716;51.910;4.430;2023-02-19T11:04:32;10.80;99.90
55795;DHT22;41716;51.910;4.430;2023-02-19T11:09:37;10.60;99.90
55795;DHT22;41716;51.910;4.430;2023-02-19T11:14:40;10.90;99.90
55795;DHT22;41716;51.910;4.430;2023-02-19T11:19:42;10.90;99.90
55795;DHT22;41716;51.910;4.430;2023-02-19T11:24:49;10.80;99.90
55795;DHT22;41716;51.910;4.430;2023-02-19T11:29:51;10.80;99.90
55795;DHT22;41716;51.910;4.430;2023-02-19T11:40:11;10.70;99.90
55795;DHT22;41716;51.910;4.430;2023-02-19T11:45:15;11.10;99.90
55795;DHT22;41716;51.910;4.430;2023-02-19T11:50:20;10.80;99.90
55795;DHT22;41716;51.910;4.430;2023-02-19T11:55:28;11.10;99.90
55795;DHT22;41716;51.910;4.430;2023-02-19T12:00:34;11.10;99.90
55795;DHT22;41716;51.910;4.430;2023-02-19T12:05:43;11.20;99.90
55795;DHT22;41716;51.910;4.430;2023-02-19T12:10:51;11.10;99.90
55795;DHT22;41716;51.910;4.430;2023-02-19T12:16:00;10.90;99.90
55795;DHT22;41716;51.910;4.430;2023-02-19T12:21:06;10.80;99.90
55795;DHT22;41716;51.910;4.430;2023-02-19T12:26:17;10.70;99.90
55795;DHT22;41716;51.910;4.430;2023-02-19T12:31:27;11.00;99.90
55795;DHT22;41716;51.910;4.430;2023-02-19T12:36:36;10.70;99.90
55795;DHT22;41716;51.910;4.430;2023-02-19T12:41:41;10.60;99.90
55795;DHT22;41716;51.910;4.430;2023-02-19T12:46:45;11.00;99.90
55795;DHT22;41716;51.910;4.430;2023-02-19T12:51:49;11.00;99.90
55795;DHT22;41716;51.910;4.430;2023-02-19T12:56:56;11.00;99.90
55795;DHT22;41716;51.910;4.430;2023-02-19T13:02:02;10.80;99.90
55795;DHT22;41716;51.910;4.430;2023-02-19T13:07:05;10.90;99.90
55795;DHT22;41716;51.910;4.430;2023-02-19T13:12:12;10.60;99.90
55795;DHT22;41716;51.910;4.430;2023-02-19T13:17:22;10.60;99.90
55795;DHT22;41716;51.910;4.430;2023-02-19T13:22:28;10.70;99.90
55795;DHT22;41716;51.910;4.430;2023-02-19T13:27:56;10.90;99.90
55795;DHT22;41716;51.910;4.430;2023-02-19T13:33:02;10.80;99.90
55795;DHT22;41716;51.910;4.430;2023-02-19T13:38:07;10.80;99.90
55795;DHT22;41716;51.910;4.430;2023-02-19T13:43:19;10.60;99.90
55795;DHT22;41716;51.910;4.430;2023-02-19T13:48:24;10.60;99.90
55795;DHT22;41716;51.910;4.430;2023-02-19T14:04:07;10.80;99.90
55795;DHT22;41716;51.910;4.430;2023-02-19T14:14:26;10.40;99.90
55795;DHT22;41716;51.910;4.430;2023-02-19T14:19:49;10.60;99.90
55795;DHT22;41716;51.910;4.430;2023-02-19T14:24:51;10.60;99.90
55795;DHT22;41716;51.910;4.430;2023-02-19T14:29:52;10.70;99.90
55795;DHT22;41716;51.910;4.430;2023-02-19T14:34:55;10.80;99.90
55795;DHT22;41716;51.910;4.430;2023-02-19T14:39:57;10.50;99.90
55795;DHT22;41716;51.910;4.430;2023-02-19T14:44:59;10.70;99.90
55795;DHT22;41716;51.910;4.430;2023-02-19T14:50:04;10.70;99.90
55795;DHT22;41716;51.910;4.430;2023-02-19T14:55:08;10.60;99.90
55795;DHT22;41716;51.910;4.430;2023-02-19T15:00:20;10.60;99.90
55795;DHT22;41716;51.910;4.430;2023-02-19T15:05:24;10.50;99.90
55795;DHT22;41716;51.910;4.430;2023-02-19T15:10:26;10.70;99.90
55795;DHT22;41716;51.910;4.430;2023-02-19T15:15:28;10.60;99.90
55795;DHT22;41716;51.910;4.430;2023-02-19T15:20:34;10.30;99.90
55795;DHT22;41716;51.910;4.430;2023-02-19T15:25:37;10.40;99.90
55795;DHT22;41716;51.910;4.430;2023-02-19T15:30:38;10.40;99.90
55795;DHT22;41716;51.910;4.430;2023-02-19T15:35:41;10.30;99.90
55795;DHT22;41716;51.910;4.430;2023-02-19T15:40:47;10.20;99.90
55795;DHT22;41716;51.910;4.430;2023-02-19T15:45:49;9.90;99.90
55795;DHT22;41716;51.910;4.430;2023-02-19T15:50:54;10.00;99.90
55795;DHT22;41716;51.910;4.430;2023-02-19T15:55:57;9.90;99.90
55795;DHT22;41716;51.910;4.430;2023-02-19T16:01:00;9.70;99.90
55795;DHT22;41716;51.910;4.430;2023-02-19T16:06:05;9.80;99.90
55795;DHT22;41716;51.910;4.430;2023-02-19T16:11:25;9.40;99.90
55795;DHT22;41716;51.910;4.430;2023-02-19T16:16:28;9.40;99.90
55795;DHT22;41716;51.910;4.430;2023-02-19T16:21:31;9.10;99.90
55795;DHT22;41716;51.910;4.430;2023-02-19T16:26:38;9.40;99.90
55795;DHT22;41716;51.910;4.430;2023-02-19T16:31:39;9.20;99.90
55795;DHT22;41716;51.910;4.430;2023-02-19T16:36:48;9.40;99.90
55795;DHT22;41716;51.910;4.430;2023-02-19T16:42:09;9.40;99.90
55795;DHT22;41716;51.910;4.430;2023-02-19T16:47:13;8.90;99.90
55795;DHT22;41716;51.910;4.430;2023-02-19T16:52:17;8.70;99.90
55795;DHT22;41716;51.910;4.430;2023-02-19T16:57:18;8.80;99.90
55795;DHT22;41716;51.910;4.430;2023-02-19T17:02:21;8.60;99.90
55795;DHT22;41716;51.910;4.430;2023-02-19T17:07:25;8.60;99.90
55795;DHT22;41716;51.910;4.430;2023-02-19T17:12:26;8.50;99.90
55795;DHT22;41716;51.910;4.430;2023-02-19T17:17:28;8.40;99.90
55795;DHT22;41716;51.910;4.430;2023-02-19T17:22:31;8.30;99.90
55795;DHT22;41716;51.910;4.430;2023-02-19T17:27:32;8.60;99.90
55795;DHT22;41716;51.910;4.430;2023-02-19T17:32:34;8.70;99.90
55795;DHT22;41716;51.910;4.430;2023-02-19T17:37:37;8.50;99.90
55795;DHT22;41716;51.910;4.430;2023-02-19T17:42:38;8.10;99.90
55795;DHT22;41716;51.910;4.430;2023-02-19T17:47:40;8.00;99.90
55795;DHT22;41716;51.910;4.430;2023-02-19T17:52:42;8.40;99.90
55795;DHT22;41716;51.910;4.430;2023-02-19T17:57:44;8.00;99.90
55795;DHT22;41716;51.910;4.430;2023-02-19T18:02:45;8.50;99.90
55795;DHT22;41716;51.910;4.430;2023-02-19T18:07:48;8.00;99.90
55795;DHT22;41716;51.910;4.430;2023-02-19T18:12:50;8.00;99.90
55795;DHT22;41716;51.910;4.430;2023-02-19T18:17:52;8.30;99.90
55795;DHT22;41716;51.910;4.430;2023-02-19T18:22:55;7.80;99.90
55795;DHT22;41716;51.910;4.430;2023-02-19T18:27:57;7.90;99.90
55795;DHT22;41716;51.910;4.430;2023-02-19T18:32:58;8.20;99.90
55795;DHT22;41716;51.910;4.430;2023-02-19T18:38:01;8.30;99.90
55795;DHT22;41716;51.910;4.430;2023-02-19T18:43:03;8.50;99.90
55795;DHT22;41716;51.910;4.430;2023-02-19T18:48:05;7.80;99.90
55795;DHT22;41716;51.910;4.430;2023-02-19T18:53:08;8.30;99.90
55795;DHT22;41716;51.910;4.430;2023-02-19T18:58:10;8.60;99.90
55795;DHT22;41716;51.910;4.430;2023-02-19T19:03:12;8.10;99.90
55795;DHT22;41716;51.910;4.430;2023-02-19T19:08:15;8.60;99.90
55795;DHT22;41716;51.910;4.430;2023-02-19T19:13:16;7.90;99.90
55795;DHT22;41716;51.910;4.430;2023-02-19T19:18:18;8.20;99.90
55795;DHT22;41716;51.910;4.430;2023-02-19T19:23:20;7.60;99.90
55795;DHT22;41716;51.910;4.430;2023-02-19T19:28:22;7.60;99.90
55795;DHT22;41716;51.910;4.430;2023-02-19T19:33:23;8.30;99.90
55795;DHT22;41716;51.910;4.430;2023-02-19T19:38:26;8.20;99.90
55795;DHT22;41716;51.910;4.430;2023-02-19T19:43:28;7.80;99.90
55795;DHT22;41716;51.910;4.430;2023-02-19T19:48:30;8.00;99.90
55795;DHT22;41716;51.910;4.430;2023-02-19T19:53:33;8.00;99.90
55795;DHT22;41716;51.910;4.430;2023-02-19T19:58:35;7.40;99.90
55795;DHT22;41716;51.910;4.430;2023-02-19T20:03:38;8.40;99.90
55795;DHT22;41716;51.910;4.430;2023-02-19T20:08:41;7.40;99.90
55795;DHT22;41716;51.910;4.430;2023-02-19T20:13:42;8.30;99.90
55795;DHT22;41716;51.910;4.430;2023-02-19T20:18:44;7.40;99.90
55795;DHT22;41716;51.910;4.430;2023-02-19T20:23:46;8.10;99.90
55795;DHT22;41716;51.910;4.430;2023-02-19T20:28:48;8.40;99.90
55795;DHT22;41716;51.910;4.430;2023-02-19T20:33:49;7.50;99.90
55795;DHT22;41716;51.910;4.430;2023-02-19T20:38:52;8.30;99.90
55795;DHT22;41716;51.910;4.430;2023-02-19T20:43:54;7.50;99.90
55795;DHT22;41716;51.910;4.430;2023-02-19T20:48:55;8.20;99.90
55795;DHT22;41716;51.910;4.430;2023-02-19T20:53:58;7.60;99.90
55795;DHT22;41716;51.910;4.430;2023-02-19T20:59:00;7.70;99.90
55795;DHT22;41716;51.910;4.430;2023-02-19T21:04:01;8.00;99.90
55795;DHT22;41716;51.910;4.430;2023-02-19T21:09:04;8.20;99.90
55795;DHT22;41716;51.910;4.430;2023-02-19T21:14:06;8.20;99.90
55795;DHT22;41716;51.910;4.430;2023-02-19T21:19:07;8.00;99.90
55795;DHT22;41716;51.910;4.430;2023-02-19T21:24:11;7.40;99.90
55795;DHT22;41716;51.910;4.430;2023-02-19T21:29:14;7.40;99.90
55795;DHT22;41716;51.910;4.430;2023-02-19T21:34:16;7.90;99.90
55795;DHT22;41716;51.910;4.430;2023-02-19T21:39:20;7.90;99.90
55795;DHT22;41716;51.910;4.430;2023-02-19T21:44:22;7.40;99.90
55795;DHT22;41716;51.910;4.430;2023-02-19T21:49:23;7.60;99.90
55795;DHT22;41716;51.910;4.430;2023-02-19T21:54:26;8.20;99.90
55795;DHT22;41716;51.910;4.430;2023-02-19T21:59:27;7.30;99.90
55795;DHT22;41716;51.910;4.430;2023-02-19T22:04:29;7.50;99.90
55795;DHT22;41716;51.910;4.430;2023-02-19T22:09:32;7.20;99.90
55795;DHT22;41716;51.910;4.430;2023-02-19T22:14:33;7.90;99.90
55795;DHT22;41716;51.910;4.430;2023-02-19T22:19:35;7.30;99.90
55795;DHT22;41716;51.910;4.430;2023-02-19T22:24:38;7.40;99.90
55795;DHT22;41716;51.910;4.430;2023-02-19T22:29:39;7.40;99.90
55795;DHT22;41716;51.910;4.430;2023-02-19T22:34:41;7.60;99.90
55795;DHT22;41716;51.910;4.430;2023-02-19T22:39:44;7.60;99.90
55795;DHT22;41716;51.910;4.430;2023-02-19T22:44:45;7.90;99.90
55795;DHT22;41716;51.910;4.430;2023-02-19T22:49:47;8.50;99.90
55795;DHT22;41716;51.910;4.430;2023-02-19T22:54:50;7.70;99.90
55795;DHT22;41716;51.910;4.430;2023-02-19T22:59:52;8.10;99.90
55795;DHT22;41716;51.910;4.430;2023-02-19T23:04:53;8.00;99.90
55795;DHT22;41716;51.910;4.430;2023-02-19T23:09:56;8.50;99.90
55795;DHT22;41716;51.910;4.430;2023-02-19T23:14:58;8.20;99.90
55795;DHT22;41716;51.910;4.430;2023-02-19T23:19:59;7.80;99.90
55795;DHT22;41716;51.910;4.430;2023-02-19T23:25:03;7.60;99.90
55795;DHT22;41716;51.910;4.430;2023-02-19T23:30:05;7.60;99.90
55795;DHT22;41716;51.910;4.430;2023-02-19T23:35:07;7.50;99.90
55795;DHT22;41716;51.910;4.430;2023-02-19T23:40:10;7.40;99.90
55795;DHT22;41716;51.910;4.430;2023-02-19T23:45:13;7.90;99.90
55795;DHT22;41716;51.910;4.430;2023-02-19T23:50:15;7.50;99.90
55795;DHT22;41716;51.910;4.430;2023-02-19T23:55:18;7.60;99.90
